createdAt,value
2022-10-22T00:01:16.905Z,9.38
2022-10-22T00:03:43.525Z,9.27
2022-10-22T00:06:10.147Z,5.05
2022-10-22T00:08:38.580Z,10.25
2022-10-22T00:11:10.782Z,9.37
2022-10-22T00:13:37.560Z,5.38
2022-10-22T00:16:04.637Z,7.72
2022-10-22T00:18:31.386Z,4.63
2022-10-22T00:20:58.240Z,4.53
2022-10-22T00:23:24.835Z,4.80
2022-10-22T00:25:53.847Z,7.40
2022-10-22T00:28:20.642Z,6.20
2022-10-22T00:30:47.564Z,4.40
2022-10-22T00:33:14.236Z,8.98
2022-10-22T00:35:40.833Z,5.53
2022-10-22T00:38:07.546Z,5.88
2022-10-22T00:40:34.224Z,5.07
2022-10-22T00:43:02.210Z,5.93
2022-10-22T00:45:29.375Z,12.07
2022-10-22T00:48:00.829Z,9.82
2022-10-22T00:50:32.245Z,5.32
2022-10-22T00:52:59.284Z,6.53
2022-10-22T00:55:27.832Z,6.72
2022-10-22T00:57:56.418Z,4.97
2022-10-22T01:00:25.105Z,6.83
2022-10-22T01:02:53.436Z,4.63
2022-10-22T01:05:20.964Z,4.25
2022-10-22T01:07:49.537Z,9.90
2022-10-22T01:10:26.436Z,6.77
2022-10-22T01:13:01.864Z,7.07
2022-10-22T01:15:37.535Z,3.88
2022-10-22T01:18:08.133Z,12.23
2022-10-22T01:20:58.033Z,7.18
2022-10-22T01:23:42.785Z,6.57
2022-10-22T01:26:20.795Z,6.20
2022-10-22T01:28:58.653Z,5.88
2022-10-22T01:31:29.397Z,3.28
2022-10-22T01:33:58.477Z,4.95
2022-10-22T01:36:25.911Z,3.42
2022-10-22T01:38:54.068Z,6.40
2022-10-22T01:41:20.723Z,4.10
2022-10-22T01:43:47.302Z,3.20
2022-10-22T01:46:18.245Z,5.15
2022-10-22T01:48:55.131Z,5.30
2022-10-22T01:51:36.770Z,5.90
2022-10-22T01:54:09.980Z,8.10
2022-10-22T01:56:53.523Z,4.18
2022-10-22T01:59:32.617Z,3.92
2022-10-22T02:02:10.628Z,6.43
2022-10-22T02:04:44.946Z,7.80
2022-10-22T02:07:15.132Z,2.90
2022-10-22T02:09:43.734Z,4.07
2022-10-22T02:12:12.845Z,5.27
2022-10-22T02:14:43.455Z,4.78
2022-10-22T02:17:16.823Z,3.13
2022-10-22T02:19:50.251Z,5.07
2022-10-22T02:22:17.633Z,5.55
2022-10-22T02:24:44.759Z,4.15
2022-10-22T02:27:25.761Z,4.28
2022-10-22T02:29:58.926Z,4.15
2022-10-22T02:32:32.748Z,3.30
2022-10-22T02:35:00.729Z,6.85
2022-10-22T02:37:28.309Z,6.78
2022-10-22T02:39:55.337Z,3.83
2022-10-22T02:42:23.701Z,7.53
2022-10-22T02:44:50.344Z,7.60
2022-10-22T02:47:17.018Z,5.15
2022-10-22T02:49:45.051Z,5.05
2022-10-22T02:52:11.668Z,3.75
2022-10-22T02:54:38.323Z,3.00
2022-10-22T02:57:05.024Z,10.65
2022-10-22T02:59:31.628Z,4.07
2022-10-22T03:01:58.318Z,4.67
2022-10-22T03:04:24.986Z,3.30
2022-10-22T03:06:53.077Z,5.33
2022-10-22T03:09:22.636Z,6.20
2022-10-22T03:11:51.676Z,5.30
2022-10-22T03:14:18.584Z,9.20
2022-10-22T03:16:45.269Z,3.60
2022-10-22T03:19:11.865Z,5.07
2022-10-22T03:21:42.369Z,4.88
2022-10-22T03:24:13.676Z,3.97
2022-10-22T03:26:41.955Z,5.78
2022-10-22T03:29:10.290Z,4.15
2022-10-22T03:31:37.039Z,5.50
2022-10-22T03:34:03.656Z,4.40
2022-10-22T03:36:31.376Z,5.35
2022-10-22T03:38:59.048Z,4.10
2022-10-22T03:41:27.672Z,4.53
2022-10-22T03:43:55.061Z,5.80
2022-10-22T03:46:21.700Z,9.15
2022-10-22T03:48:48.300Z,5.35
2022-10-22T03:51:15.048Z,11.07
2022-10-22T03:53:41.692Z,6.55
2022-10-22T03:56:09.216Z,4.95
2022-10-22T03:58:37.683Z,6.40
2022-10-22T04:01:05.430Z,4.47
2022-10-22T04:03:32.167Z,6.63
2022-10-22T04:06:01.809Z,4.38
2022-10-22T04:08:28.577Z,10.27
2022-10-22T04:10:55.143Z,5.35
2022-10-22T04:13:21.800Z,5.10
2022-10-22T04:15:49.835Z,6.45
2022-10-22T04:18:16.493Z,5.10
2022-10-22T04:20:43.195Z,6.82
2022-10-22T04:23:09.779Z,3.97
2022-10-22T04:25:36.410Z,3.92
2022-10-22T04:28:03.148Z,5.72
2022-10-22T04:30:29.748Z,4.80
2022-10-22T04:32:57.757Z,4.50
2022-10-22T04:37:51.867Z,3.72
2022-10-22T04:40:18.628Z,5.35
2022-10-22T04:42:45.241Z,5.00
2022-10-22T04:45:11.889Z,5.00
2022-10-22T04:47:39.064Z,8.68
2022-10-22T04:50:08.333Z,9.88
2022-10-22T04:52:35.056Z,6.32
2022-10-22T04:55:01.674Z,7.40
2022-10-22T04:57:29.599Z,3.20
2022-10-22T04:59:56.196Z,5.05
2022-10-22T05:02:22.867Z,5.75
2022-10-22T05:04:49.611Z,6.53
2022-10-22T05:07:17.797Z,11.30
2022-10-22T05:09:44.515Z,5.65
2022-10-22T05:12:11.144Z,6.97
2022-10-22T05:14:41.405Z,6.50
2022-10-22T05:17:10.696Z,4.97
2022-10-22T05:19:37.516Z,9.52
2022-10-22T05:22:05.477Z,5.50
2022-10-22T05:24:34.361Z,4.60
2022-10-22T05:27:01.242Z,5.25
2022-10-22T05:29:28.066Z,6.68
2022-10-22T05:31:55.100Z,5.10
2022-10-22T05:34:21.854Z,4.18
2022-10-22T05:36:48.511Z,6.15
2022-10-22T05:39:15.235Z,4.75
2022-10-22T05:41:43.247Z,3.88
2022-10-22T05:44:12.097Z,4.47
2022-10-22T05:46:38.725Z,9.82
2022-10-22T05:49:06.820Z,12.32
2022-10-22T05:51:35.766Z,8.25
2022-10-22T05:54:08.490Z,5.47
2022-10-22T05:56:35.652Z,7.82
2022-10-22T06:01:35.660Z,8.02
2022-10-22T06:04:07.392Z,8.52
2022-10-22T06:06:36.201Z,10.48
2022-10-22T06:09:06.608Z,6.55
2022-10-22T06:11:35.174Z,19.98
2022-10-22T06:14:03.718Z,21.38
2022-10-22T06:16:31.594Z,23.50
2022-10-22T06:18:59.536Z,16.58
2022-10-22T06:21:26.268Z,23.73
2022-10-22T06:23:56.141Z,9.73
2022-10-22T06:26:27.875Z,16.40
2022-10-22T06:28:55.166Z,8.43
2022-10-22T06:31:23.612Z,11.23
2022-10-22T06:33:50.321Z,7.43
2022-10-22T06:36:19.743Z,13.98
2022-10-22T06:41:15.707Z,23.02
2022-10-22T06:43:46.726Z,13.60
2022-10-22T06:46:17.605Z,22.92
2022-10-22T06:48:52.087Z,24.58
2022-10-22T06:51:19.639Z,21.48
2022-10-22T06:53:46.509Z,20.55
2022-10-22T06:56:16.136Z,15.52
2022-10-22T07:01:15.697Z,13.38
2022-10-22T07:03:42.985Z,15.15
2022-10-22T07:06:12.658Z,17.67
2022-10-22T07:08:42.499Z,10.13
2022-10-22T07:11:11.577Z,8.57
2022-10-22T07:13:38.751Z,5.05
2022-10-22T07:16:07.132Z,11.60
2022-10-22T07:18:35.071Z,5.72
2022-10-22T07:21:05.597Z,5.60
2022-10-22T07:23:33.708Z,10.75
2022-10-22T07:26:00.768Z,4.95
2022-10-22T07:28:27.368Z,11.20
2022-10-22T07:30:54.143Z,6.45
2022-10-22T07:33:21.057Z,6.88
2022-10-22T07:35:47.798Z,10.77
2022-10-22T07:38:14.613Z,11.80
2022-10-22T07:40:42.652Z,9.02
2022-10-22T07:43:09.339Z,8.43
2022-10-22T07:45:36.014Z,14.25
2022-10-22T07:48:02.837Z,8.95
2022-10-22T07:50:29.536Z,6.80
2022-10-22T07:52:58.444Z,8.15
2022-10-22T07:55:25.163Z,9.55
2022-10-22T07:57:53.285Z,11.23
2022-10-22T08:00:23.067Z,12.45
2022-10-22T08:02:52.025Z,12.80
2022-10-22T08:05:18.878Z,9.48
2022-10-22T08:07:45.610Z,5.63
2022-10-22T08:10:13.036Z,13.82
2022-10-22T08:12:40.783Z,8.02
2022-10-22T08:15:10.204Z,16.48
2022-10-22T08:17:37.059Z,5.75
2022-10-22T08:20:04.195Z,6.65
2022-10-22T08:22:30.805Z,10.15
2022-10-22T08:24:57.471Z,8.60
2022-10-22T08:27:24.129Z,8.30
2022-10-22T08:29:50.907Z,9.80
2022-10-22T08:32:19.001Z,6.88
2022-10-22T08:34:45.629Z,10.55
2022-10-22T08:37:12.273Z,15.25
2022-10-22T08:39:39.083Z,14.50
2022-10-22T08:42:17.624Z,18.02
2022-10-22T08:45:00.256Z,22.05
2022-10-22T08:47:47.303Z,17.48
2022-10-22T08:50:19.253Z,24.55
2022-10-22T08:52:53.731Z,21.55
2022-10-22T08:55:24.249Z,12.98
2022-10-22T08:57:59.824Z,14.85
2022-10-22T09:00:37.320Z,12.23
2022-10-22T09:03:27.692Z,10.55
2022-10-22T09:06:03.532Z,6.95
2022-10-22T09:08:30.241Z,9.32
2022-10-22T09:11:04.184Z,5.90
2022-10-22T09:13:30.897Z,6.93
2022-10-22T09:16:00.590Z,8.50
2022-10-22T09:18:39.368Z,10.02
2022-10-22T09:21:17.817Z,11.73
2022-10-22T09:23:54.513Z,14.60
2022-10-22T09:26:21.585Z,12.85
2022-10-22T09:28:51.073Z,12.55
2022-10-22T09:31:21.599Z,11.00
2022-10-22T09:33:54.921Z,7.35
2022-10-22T09:36:23.193Z,6.53
2022-10-22T09:38:53.247Z,11.13
2022-10-22T09:41:23.648Z,10.45
2022-10-22T09:43:50.334Z,9.18
2022-10-22T09:46:28.064Z,8.68
2022-10-22T09:49:06.710Z,9.00
2022-10-22T09:51:56.302Z,8.68
2022-10-22T09:54:38.314Z,8.98
2022-10-22T09:57:09.634Z,12.57
2022-10-22T09:59:41.512Z,10.70
2022-10-22T10:02:37.521Z,8.30
2022-10-22T10:05:30.609Z,12.13
2022-10-22T10:08:02.631Z,7.75
2022-10-22T10:10:41.051Z,8.95
2022-10-22T10:13:27.571Z,9.87
2022-10-22T10:15:59.241Z,10.73
2022-10-22T10:18:48.334Z,11.52
2022-10-22T10:21:30.904Z,14.57
2022-10-22T10:24:05.162Z,7.63
2022-10-22T10:26:37.767Z,10.20
2022-10-22T10:29:24.314Z,11.70
2022-10-22T10:32:06.756Z,13.82
2022-10-22T10:34:43.803Z,22.60
2022-10-22T10:37:21.502Z,17.95
2022-10-22T10:40:26.369Z,17.00
2022-10-22T10:42:58.896Z,13.00
2022-10-22T10:45:33.266Z,12.93
2022-10-22T10:48:41.119Z,18.27
2022-10-22T10:51:18.709Z,14.02
2022-10-22T10:54:03.856Z,16.60
2022-10-22T10:56:39.931Z,16.27
2022-10-22T10:59:16.620Z,12.88
2022-10-22T11:01:58.084Z,16.02
2022-10-22T11:04:45.853Z,12.88
2022-10-22T11:07:30.203Z,12.25
2022-10-22T11:10:08.740Z,16.15
2022-10-22T11:12:43.422Z,15.70
2022-10-22T11:15:22.953Z,12.45
2022-10-22T11:17:54.245Z,15.32
2022-10-22T11:20:25.477Z,19.48
2022-10-22T11:23:18.280Z,7.78
2022-10-22T11:25:47.101Z,16.40
2022-10-22T11:28:20.416Z,18.20
2022-10-22T11:30:54.372Z,12.40
2022-10-22T11:33:26.702Z,11.48
2022-10-22T11:35:53.412Z,9.95
2022-10-22T11:38:24.301Z,10.95
2022-10-22T11:40:57.342Z,13.02
2022-10-22T11:43:29.794Z,12.65
2022-10-22T11:46:08.371Z,11.20
2022-10-22T11:48:37.992Z,16.20
2022-10-22T11:51:37.047Z,13.13
2022-10-22T11:56:52.993Z,15.68
2022-10-22T11:59:39.072Z,16.13
2022-10-22T12:02:24.215Z,15.07
2022-10-22T12:04:50.913Z,11.82
2022-10-22T12:07:35.313Z,14.07
2022-10-22T12:10:05.996Z,10.38
2022-10-22T12:12:38.737Z,11.77
2022-10-22T12:15:23.196Z,18.42
2022-10-22T12:17:50.292Z,21.15
2022-10-22T12:20:17.372Z,12.48
2022-10-22T12:22:46.572Z,10.90
2022-10-22T12:27:44.214Z,12.48
2022-10-22T12:30:18.793Z,18.30
2022-10-22T12:32:45.866Z,15.05
2022-10-22T12:35:19.141Z,17.50
2022-10-22T12:37:49.969Z,13.02
2022-10-22T12:40:19.080Z,13.55
2022-10-22T12:42:51.536Z,18.15
2022-10-22T12:45:18.281Z,19.98
2022-10-22T12:47:50.063Z,15.90
2022-10-22T12:50:19.960Z,12.32
2022-10-22T12:52:48.759Z,10.88
2022-10-22T12:55:17.038Z,21.02
2022-10-22T12:57:46.156Z,20.00
2022-10-22T13:00:25.633Z,12.68
2022-10-22T13:02:52.798Z,19.15
2022-10-22T13:05:25.305Z,12.30
2022-10-22T13:07:57.859Z,15.25
2022-10-22T13:10:26.378Z,16.50
2022-10-22T13:12:56.067Z,15.05
2022-10-22T13:15:35.601Z,16.65
2022-10-22T13:18:16.152Z,16.13
2022-10-22T13:20:54.497Z,19.13
2022-10-22T13:23:24.717Z,14.67
2022-10-22T13:26:03.596Z,18.23
2022-10-22T13:28:32.082Z,16.33
2022-10-22T13:31:00.793Z,11.20
2022-10-22T13:33:30.403Z,13.90
2022-10-22T13:35:57.206Z,15.70
2022-10-22T13:38:26.952Z,17.70
2022-10-22T13:40:54.567Z,10.95
2022-10-22T13:43:22.501Z,26.02
2022-10-22T13:45:52.920Z,18.20
2022-10-22T13:48:27.245Z,23.17
2022-10-22T13:50:56.069Z,25.27
2022-10-22T13:53:25.962Z,15.63
2022-10-22T13:56:16.617Z,18.52
2022-10-22T13:58:52.039Z,21.45
2022-10-22T14:01:23.696Z,15.40
2022-10-22T14:03:53.284Z,15.95
2022-10-22T14:06:22.147Z,23.48
2022-10-22T14:08:56.896Z,24.83
2022-10-22T14:11:30.309Z,20.65
2022-10-22T14:14:01.825Z,19.00
2022-10-22T14:16:29.178Z,27.88
2022-10-22T14:18:58.275Z,14.32
2022-10-22T14:21:25.287Z,21.88
2022-10-22T14:23:58.699Z,9.68
